Time;durP1;ratioP1;P1;durP2;ratioP2;P2;SDS_P1;SDS_P2;PMS_P1;PMS_P2;Temp;Humidity;BMP_temperature;BMP_pressure;BME280_temperature;BME280_humidity;BME280_pressure;Samples;Min_cycle;Max_cycle;Signal;HPM_P1;HPM_P2
2023/06/03 00:00:03;;;;;;;9.98;3.03;;;14.80;98.60;;;;;;4991687;28;20062;-49
2023/06/03 00:02:29;;;;;;;6.47;2.80;;;14.80;98.70;;;;;;4992245;28;20026;-51
2023/06/03 00:04:55;;;;;;;9.02;2.95;;;14.70;98.80;;;;;;4991965;28;20537;-51
2023/06/03 00:07:20;;;;;;;6.35;2.38;;;14.60;99.00;;;;;;4992311;28;20479;-50
2023/06/03 00:09:46;;;;;;;9.60;4.38;;;14.50;99.10;;;;;;4991149;28;20328;-46
2023/06/03 00:12:11;;;;;;;9.80;2.80;;;14.50;99.30;;;;;;4991983;28;20490;-47
2023/06/03 00:14:37;;;;;;;11.38;2.70;;;14.50;99.40;;;;;;5006573;23;20042;-55
2023/06/03 00:17:03;;;;;;;6.93;2.92;;;14.50;99.50;;;;;;5011768;28;20026;-52
2023/06/03 00:19:28;;;;;;;4.70;2.60;;;14.50;99.50;;;;;;5010811;28;20026;-50
2023/06/03 00:21:54;;;;;;;7.88;2.80;;;14.50;99.60;;;;;;5011334;28;20026;-54
2023/06/03 00:24:22;;;;;;;10.93;3.00;;;14.50;99.70;;;;;;5011279;28;20041;-55
2023/06/03 00:26:51;;;;;;;6.35;2.75;;;14.50;99.90;;;;;;5011878;28;20083;-50
2023/06/03 00:29:18;;;;;;;8.23;2.78;;;14.50;99.80;;;;;;5011951;28;20035;-53
2023/06/03 00:31:44;;;;;;;14.45;3.15;;;14.50;99.90;;;;;;5011395;28;20397;-51
2023/06/03 00:34:10;;;;;;;6.85;3.55;;;14.50;99.90;;;;;;5011399;28;20032;-52
2023/06/03 00:36:35;;;;;;;12.23;2.72;;;14.40;99.90;;;;;;5011801;28;20030;-52
2023/06/03 00:39:01;;;;;;;6.60;3.10;;;14.30;99.90;;;;;;5011733;28;20390;-54
2023/06/03 00:41:27;;;;;;;6.43;2.47;;;14.20;99.90;;;;;;5011252;28;20486;-49
2023/06/03 00:43:52;;;;;;;7.55;2.85;;;14.20;99.90;;;;;;5012215;28;20032;-50
2023/06/03 00:46:19;;;;;;;10.27;2.63;;;14.10;99.90;;;;;;5015358;28;20018;-50
2023/06/03 00:48:45;;;;;;;7.95;2.85;;;14.10;99.90;;;;;;5015673;28;20037;-53
2023/06/03 00:51:11;;;;;;;9.52;2.83;;;14.00;99.90;;;;;;5015064;28;20030;-53
2023/06/03 00:53:37;;;;;;;12.75;2.92;;;14.10;99.90;;;;;;5015205;28;20113;-50
2023/06/03 00:56:03;;;;;;;10.88;3.00;;;14.10;99.90;;;;;;5015401;28;20068;-56
2023/06/03 00:58:29;;;;;;;4.05;2.80;;;14.00;99.90;;;;;;5015460;28;20030;-52
2023/06/03 01:00:55;;;;;;;13.05;2.72;;;14.00;99.90;;;;;;5014908;28;20022;-55
2023/06/03 01:03:20;;;;;;;7.53;3.00;;;14.00;99.90;;;;;;5014697;28;20033;-54
2023/06/03 01:06:15;;;;;;;13.38;3.53;;;13.90;99.90;;;;;;5014972;28;20022;-52
2023/06/03 01:09:11;;;;;;;8.50;3.13;;;13.90;99.90;;;;;;5015174;28;20026;-55
2023/06/03 01:11:59;;;;;;;;;;;13.80;99.90;;;;;;5015039;28;20028;-53
2023/06/03 01:14:43;;;;;;;7.07;2.50;;;13.80;99.90;;;;;;5014392;28;20007;-53
2023/06/03 01:17:15;;;;;;;6.28;3.38;;;13.80;99.90;;;;;;5014979;28;20057;-54
2023/06/03 01:19:48;;;;;;;9.18;3.15;;;13.80;99.90;;;;;;5013832;28;20452;-53
2023/06/03 01:22:19;;;;;;;6.53;2.70;;;13.80;99.90;;;;;;5014211;28;20117;-53
2023/06/03 01:24:48;;;;;;;6.22;2.67;;;13.80;99.90;;;;;;5014460;28;20272;-51
2023/06/03 01:27:14;;;;;;;6.55;2.80;;;13.80;99.90;;;;;;5014668;28;20022;-55
2023/06/03 01:29:43;;;;;;;7.22;2.83;;;13.70;99.90;;;;;;5014589;28;20105;-54
2023/06/03 01:32:17;;;;;;;8.50;2.78;;;13.70;99.90;;;;;;5014104;28;20045;-54
2023/06/03 01:34:43;;;;;;;11.38;3.13;;;13.60;99.90;;;;;;5014283;28;20018;-52
2023/06/03 01:37:10;;;;;;;10.40;3.28;;;13.60;99.90;;;;;;5014606;28;20026;-51
2023/06/03 01:39:40;;;;;;;8.15;2.90;;;13.60;99.90;;;;;;5014487;28;20516;-53
2023/06/03 01:42:07;;;;;;;7.10;3.10;;;13.60;99.90;;;;;;5014017;28;20044;-52
2023/06/03 01:44:33;;;;;;;7.40;2.92;;;13.60;99.90;;;;;;5013837;28;20445;-54
2023/06/03 01:46:59;;;;;;;5.85;2.72;;;13.50;99.90;;;;;;5014786;28;20022;-54
2023/06/03 01:49:24;;;;;;;5.05;3.13;;;13.50;99.90;;;;;;5014294;28;20076;-53
2023/06/03 01:51:50;;;;;;;12.18;3.22;;;13.40;99.90;;;;;;5013863;28;20026;-52
2023/06/03 01:54:18;;;;;;;7.32;2.97;;;13.50;99.90;;;;;;5014005;28;20033;-50
2023/06/03 01:56:43;;;;;;;12.57;3.10;;;13.50;99.90;;;;;;5012197;28;20398;-50
2023/06/03 01:59:09;;;;;;;6.53;3.78;;;13.50;99.90;;;;;;5014175;28;20033;-51
2023/06/03 02:01:36;;;;;;;9.35;3.72;;;13.50;99.90;;;;;;5013689;28;20022;-55
2023/06/03 02:04:01;;;;;;;7.35;3.05;;;13.50;99.90;;;;;;5013704;28;20025;-52
2023/06/03 02:06:27;;;;;;;8.35;3.40;;;13.40;99.90;;;;;;5014086;28;20505;-52
2023/06/03 02:08:53;;;;;;;8.23;3.88;;;13.40;99.90;;;;;;5014084;28;20434;-53
2023/06/03 02:11:18;;;;;;;8.40;3.50;;;13.40;99.90;;;;;;5013525;28;20482;-53
2023/06/03 02:13:44;;;;;;;9.27;3.38;;;13.40;99.90;;;;;;5013777;28;20041;-53
2023/06/03 02:16:10;;;;;;;8.52;3.83;;;13.40;99.90;;;;;;5013843;28;20494;-56
2023/06/03 02:18:37;;;;;;;7.65;3.47;;;13.40;99.90;;;;;;5012109;28;20569;-53
2023/06/03 02:21:02;;;;;;;7.57;4.13;;;13.40;99.90;;;;;;5013560;28;20049;-53
2023/06/03 02:23:28;;;;;;;5.75;3.53;;;13.30;99.90;;;;;;5013480;28;20022;-55
2023/06/03 02:25:54;;;;;;;12.80;4.43;;;13.30;99.90;;;;;;5013854;28;20030;-54
2023/06/03 02:28:22;;;;;;;7.68;3.90;;;13.30;99.90;;;;;;5014073;28;20025;-53
2023/06/03 02:30:48;;;;;;;8.35;3.85;;;13.20;99.90;;;;;;5013279;28;20060;-56
2023/06/03 02:33:14;;;;;;;4.70;3.35;;;13.20;99.90;;;;;;5013418;28;20026;-52
2023/06/03 02:35:40;;;;;;;9.98;3.40;;;13.20;99.90;;;;;;5013676;28;20029;-54
2023/06/03 02:38:05;;;;;;;4.97;3.60;;;13.10;99.90;;;;;;5013666;28;20105;-52
2023/06/03 02:40:30;;;;;;;11.18;3.58;;;13.10;99.90;;;;;;5013074;28;20108;-52
2023/06/03 02:42:56;;;;;;;8.40;4.97;;;13.10;99.90;;;;;;5012873;28;20093;-55
2023/06/03 02:45:22;;;;;;;9.82;4.07;;;13.10;99.90;;;;;;5013409;28;20050;-51
2023/06/03 02:47:47;;;;;;;7.03;3.97;;;13.00;99.90;;;;;;5013339;28;20100;-50
2023/06/03 02:50:13;;;;;;;7.57;3.50;;;13.00;99.90;;;;;;5012844;28;20029;-51
2023/06/03 02:52:38;;;;;;;7.15;3.70;;;12.90;99.90;;;;;;5013673;28;20057;-54
2023/06/03 02:55:05;;;;;;;9.10;3.83;;;12.90;99.90;;;;;;5013193;28;20112;-52
2023/06/03 02:57:30;;;;;;;9.75;4.28;;;12.90;99.90;;;;;;5013088;28;20572;-53
2023/06/03 02:59:56;;;;;;;12.85;4.90;;;12.90;99.90;;;;;;5013158;28;20030;-52
2023/06/03 03:02:24;;;;;;;15.38;5.13;;;12.90;99.90;;;;;;5012627;28;20048;-51
2023/06/03 03:04:49;;;;;;;18.23;4.10;;;12.90;99.90;;;;;;5012799;28;20025;-53
2023/06/03 03:07:17;;;;;;;14.15;4.60;;;12.80;99.90;;;;;;5012987;28;20030;-53
2023/06/03 03:09:42;;;;;;;12.23;4.93;;;12.90;99.90;;;;;;5013010;28;20022;-52
2023/06/03 03:12:08;;;;;;;10.55;4.07;;;12.80;99.90;;;;;;5012306;28;20033;-51
2023/06/03 03:14:34;;;;;;;9.77;4.05;;;12.80;99.90;;;;;;5012409;28;20018;-53
2023/06/03 03:17:00;;;;;;;9.77;4.43;;;12.80;99.90;;;;;;5012934;28;20406;-53
2023/06/03 03:19:25;;;;;;;12.18;4.43;;;12.80;99.90;;;;;;5011707;28;20041;-53
2023/06/03 03:21:51;;;;;;;15.98;4.97;;;12.80;99.90;;;;;;5012427;28;20486;-51
2023/06/03 03:24:17;;;;;;;8.60;4.55;;;12.70;99.90;;;;;;5012133;28;20502;-53
2023/06/03 03:26:43;;;;;;;8.90;3.65;;;12.70;99.90;;;;;;5012974;28;20478;-53
2023/06/03 03:29:08;;;;;;;8.95;3.90;;;12.60;99.90;;;;;;5012639;28;20030;-52
2023/06/03 03:31:34;;;;;;;12.20;4.38;;;12.70;99.90;;;;;;5012119;28;20021;-52
2023/06/03 03:34:02;;;;;;;11.75;4.32;;;12.70;99.90;;;;;;5012688;28;20025;-52
2023/06/03 03:36:30;;;;;;;8.63;4.78;;;12.60;99.90;;;;;;5012623;28;20025;-52
2023/06/03 03:39:06;;;;;;;12.85;4.50;;;12.70;99.90;;;;;;5012654;28;20461;-54
2023/06/03 03:41:31;;;;;;;;;;;12.70;99.90;;;;;;5012503;28;20105;-50
2023/06/03 03:43:57;;;;;;;;;;;12.70;99.90;;;;;;5012556;28;20012;-52
2023/06/03 03:46:23;;;;;;;13.30;5.43;;;12.70;99.90;;;;;;5012309;28;19960;-56
2023/06/03 03:48:48;;;;;;;8.63;4.13;;;12.70;99.90;;;;;;5012346;28;20042;-53
2023/06/03 03:51:14;;;;;;;9.68;5.05;;;12.70;99.90;;;;;;5010423;28;20026;-54
2023/06/03 03:53:45;;;;;;;11.77;4.03;;;12.70;99.90;;;;;;5011820;28;20060;-49
2023/06/03 03:56:20;;;;;;;9.48;5.03;;;12.70;99.90;;;;;;5012223;28;20030;-51
2023/06/03 03:58:47;;;;;;;9.45;3.60;;;12.70;99.90;;;;;;5012308;28;20449;-54
2023/06/03 04:01:22;;;;;;;5.57;3.53;;;12.70;99.90;;;;;;5010477;28;20022;-51
2023/06/03 04:03:57;;;;;;;10.90;3.95;;;12.70;99.90;;;;;;5011724;28;20022;-52
2023/06/03 04:06:37;;;;;;;7.55;3.92;;;12.70;99.90;;;;;;5012124;28;20025;-51
2023/06/03 04:09:04;;;;;;;12.35;3.50;;;12.80;99.90;;;;;;5012230;28;20021;-52
2023/06/03 04:11:44;;;;;;;12.88;4.22;;;12.70;99.90;;;;;;5011509;28;20458;-55
2023/06/03 04:14:10;;;;;;;7.65;4.03;;;12.70;99.90;;;;;;5011672;28;20660;-51
2023/06/03 04:16:54;;;;;;;11.13;4.32;;;12.80;99.90;;;;;;5011824;28;20513;-53
2023/06/03 04:19:32;;;;;;;7.90;4.32;;;12.80;99.90;;;;;;5010623;28;20034;-54
2023/06/03 04:21:59;;;;;;;9.50;4.43;;;12.80;99.90;;;;;;5011442;28;20022;-53
2023/06/03 04:24:26;;;;;;;7.43;4.00;;;12.80;99.90;;;;;;5011381;28;20022;-53
2023/06/03 04:26:52;;;;;;;8.45;3.60;;;12.90;99.90;;;;;;5011813;28;20026;-52
2023/06/03 04:29:18;;;;;;;5.63;3.22;;;12.90;99.90;;;;;;5011840;28;20022;-53
2023/06/03 04:31:44;;;;;;;6.72;3.65;;;13.00;99.90;;;;;;5011274;28;20438;-52
2023/06/03 04:34:09;;;;;;;9.48;3.47;;;13.10;99.90;;;;;;5012066;28;20053;-51
2023/06/03 04:36:35;;;;;;;6.03;3.20;;;13.10;99.90;;;;;;5011538;28;20451;-52
2023/06/03 04:39:00;;;;;;;7.47;3.70;;;13.20;99.90;;;;;;5011753;28;20072;-55
2023/06/03 04:41:27;;;;;;;9.45;3.72;;;13.30;99.90;;;;;;5011303;28;20454;-52
2023/06/03 04:43:54;;;;;;;7.95;3.75;;;13.40;99.90;;;;;;5011029;28;20390;-54
2023/06/03 04:46:19;;;;;;;6.07;3.00;;;13.40;99.90;;;;;;5011548;28;20379;-51
2023/06/03 04:48:47;;;;;;;13.27;3.95;;;13.50;99.90;;;;;;5011587;28;20022;-52
2023/06/03 04:51:13;;;;;;;6.53;2.97;;;13.50;99.90;;;;;;5010995;28;20097;-52
2023/06/03 04:53:40;;;;;;;7.60;3.83;;;13.40;99.90;;;;;;5009887;28;20509;-54
2023/06/03 04:56:08;;;;;;;7.20;3.40;;;13.50;99.90;;;;;;5011467;28;20080;-53
2023/06/03 04:58:35;;;;;;;9.68;3.67;;;13.50;99.90;;;;;;5011514;28;20089;-57
2023/06/03 05:01:03;;;;;;;8.05;3.70;;;13.50;99.90;;;;;;5010991;28;20030;-55
2023/06/03 05:03:29;;;;;;;4.35;3.10;;;13.50;99.90;;;;;;5010994;28;20026;-55
2023/06/03 05:05:54;;;;;;;6.10;3.15;;;13.60;99.90;;;;;;5011263;28;20040;-53
2023/06/03 05:08:20;;;;;;;6.07;3.05;;;13.70;99.90;;;;;;5011401;28;20398;-52
2023/06/03 05:10:45;;;;;;;10.50;3.55;;;13.80;99.90;;;;;;5010924;28;20065;-53
2023/06/03 05:13:11;;;;;;;6.95;3.17;;;14.00;99.90;;;;;;5011254;28;20064;-49
2023/06/03 05:15:37;;;;;;;3.88;2.55;;;14.10;99.90;;;;;;5011110;28;20033;-55
2023/06/03 05:18:02;;;;;;;6.57;2.92;;;14.20;99.90;;;;;;5010203;28;20030;-51
2023/06/03 05:20:30;;;;;;;4.00;2.70;;;14.10;99.90;;;;;;5010790;28;20108;-50
2023/06/03 05:22:55;;;;;;;7.82;3.17;;;14.10;99.90;;;;;;5010897;28;20045;-52
2023/06/03 05:25:22;;;;;;;8.45;2.97;;;14.10;99.90;;;;;;5011240;28;20014;-54
2023/06/03 05:27:47;;;;;;;5.90;3.47;;;14.10;99.90;;;;;;5011317;28;20030;-53
2023/06/03 05:30:13;;;;;;;5.55;2.67;;;14.20;99.90;;;;;;5010661;28;20395;-51
2023/06/03 05:32:41;;;;;;;7.53;2.60;;;14.40;99.90;;;;;;5013122;28;20133;-54
2023/06/03 05:35:07;;;;;;;9.98;2.80;;;14.40;99.90;;;;;;5014724;28;20072;-52
2023/06/03 05:37:32;;;;;;;4.25;2.42;;;14.60;99.90;;;;;;5014638;28;20018;-54
2023/06/03 05:39:57;;;;;;;7.95;3.17;;;15.00;98.60;;;;;;5014660;28;20034;-52
2023/06/03 05:42:23;;;;;;;4.25;2.47;;;15.00;98.70;;;;;;5014108;28;20500;-54
2023/06/03 05:44:48;;;;;;;10.43;2.72;;;15.20;98.70;;;;;;5014161;28;20033;-50
2023/06/03 05:47:14;;;;;;;3.70;2.22;;;15.40;97.80;;;;;;5014526;28;20101;-50
2023/06/03 05:49:39;;;;;;;8.65;2.53;;;15.30;97.40;;;;;;5014427;28;20025;-52
2023/06/03 05:52:05;;;;;;;6.32;2.67;;;15.10;97.80;;;;;;5013969;28;20022;-52
2023/06/03 05:54:31;;;;;;;6.45;3.03;;;14.80;97.80;;;;;;5013967;28;20025;-51
2023/06/03 05:56:57;;;;;;;2.65;2.03;;;14.60;98.00;;;;;;5014488;28;20429;-52
2023/06/03 05:59:23;;;;;;;3.47;2.22;;;14.50;98.10;;;;;;5014335;28;20049;-48
2023/06/03 06:01:48;;;;;;;4.95;2.33;;;14.50;98.30;;;;;;5013773;28;20093;-52
2023/06/03 06:04:13;;;;;;;7.50;2.88;;;14.50;98.40;;;;;;5013718;28;20038;-50
2023/06/03 06:06:39;;;;;;;3.03;2.55;;;14.50;98.40;;;;;;5014108;28;20108;-54
2023/06/03 06:09:05;;;;;;;4.15;2.35;;;14.70;98.30;;;;;;5014414;28;20024;-54
2023/06/03 06:11:30;;;;;;;8.75;2.15;;;14.90;97.90;;;;;;5013807;28;20393;-55
2023/06/03 06:13:56;;;;;;;9.68;2.53;;;15.00;97.60;;;;;;5013825;28;20032;-54
2023/06/03 06:16:21;;;;;;;5.75;2.22;;;15.20;97.30;;;;;;5014355;28;20030;-54
2023/06/03 06:18:47;;;;;;;4.20;2.40;;;15.20;97.20;;;;;;5012911;28;20033;-55
2023/06/03 06:21:15;;;;;;;5.93;2.05;;;15.30;96.90;;;;;;5013686;28;20026;-53
2023/06/03 06:23:44;;;;;;;9.82;2.25;;;15.40;96.80;;;;;;5013381;28;20025;-51
2023/06/03 06:26:14;;;;;;;10.52;3.05;;;15.50;96.80;;;;;;5013676;28;20033;-51
2023/06/03 06:28:40;;;;;;;5.32;2.33;;;15.70;96.60;;;;;;5013855;28;20018;-51
2023/06/03 06:31:06;;;;;;;5.13;1.95;;;15.90;96.10;;;;;;5013245;28;20025;-52
2023/06/03 06:33:34;;;;;;;5.97;2.35;;;16.10;95.90;;;;;;5013472;28;20022;-51
2023/06/03 06:36:26;;;;;;;10.00;2.25;;;16.60;95.80;;;;;;5013663;28;20045;-55
2023/06/03 06:38:53;;;;;;;8.60;2.35;;;17.20;94.50;;;;;;5013597;28;20041;-54
2023/06/03 06:41:18;;;;;;;6.13;1.98;;;17.20;93.30;;;;;;5012729;28;20026;-53
2023/06/03 06:43:44;;;;;;;3.22;2.05;;;17.30;93.10;;;;;;5013172;28;20036;-53
2023/06/03 06:46:10;;;;;;;4.53;2.40;;;17.80;93.00;;;;;;5013380;28;20478;-55
2023/06/03 06:48:37;;;;;;;3.90;1.90;;;17.90;92.20;;;;;;5013291;28;20061;-52
2023/06/03 06:51:03;;;;;;;6.45;2.55;;;17.70;92.30;;;;;;5012786;28;20030;-51
2023/06/03 06:53:32;;;;;;;8.95;3.10;;;17.50;92.40;;;;;;5013097;28;20022;-53
2023/06/03 06:56:02;;;;;;;4.03;2.53;;;17.10;92.80;;;;;;5011849;28;20500;-51
2023/06/03 06:58:34;;;;;;;4.00;2.78;;;17.00;93.50;;;;;;5013235;28;20554;-51
2023/06/03 07:01:00;;;;;;;6.50;2.53;;;17.40;93.20;;;;;;5012694;28;20018;-53
2023/06/03 07:03:26;;;;;;;6.63;2.20;;;18.10;92.50;;;;;;5012598;28;20022;-54
2023/06/03 07:05:54;;;;;;;5.00;2.03;;;18.70;90.70;;;;;;5012892;28;20033;-50
2023/06/03 07:08:24;;;;;;;8.82;2.47;;;19.00;91.00;;;;;;5012943;28;20113;-55
2023/06/03 07:10:50;;;;;;;4.38;2.30;;;19.20;89.90;;;;;;5012552;28;20170;-55
2023/06/03 07:13:16;;;;;;;7.13;2.17;;;19.20;90.10;;;;;;5012689;28;20032;-54
2023/06/03 07:15:43;;;;;;;8.32;2.05;;;19.60;89.20;;;;;;5012647;28;20033;-54
2023/06/03 07:18:09;;;;;;;2.45;2.00;;;20.00;88.80;;;;;;5011050;28;20061;-52
2023/06/03 07:20:40;;;;;;;5.82;1.90;;;20.30;87.50;;;;;;5012109;28;20108;-51
2023/06/03 07:23:16;;;;;;;4.35;2.70;;;20.80;86.60;;;;;;5012148;28;20119;-52
2023/06/03 07:25:49;;;;;;;6.78;2.45;;;21.50;84.60;;;;;;5012577;28;20401;-54
2023/06/03 07:28:17;;;;;;;8.25;3.58;;;21.90;83.10;;;;;;5012315;28;20390;-55
2023/06/03 07:30:44;;;;;;;3.13;2.10;;;21.60;83.60;;;;;;5010434;28;20040;-54
2023/06/03 07:33:20;;;;;;;3.53;1.77;;;22.00;83.30;;;;;;5011703;28;20030;-55
2023/06/03 07:35:45;;;;;;;5.40;1.98;;;22.60;81.00;;;;;;4998063;28;20030;-52
2023/06/03 07:38:19;;;;;;;3.85;2.20;;;23.10;81.40;;;;;;5011551;28;20038;-56
2023/06/03 07:40:44;;;;;;;6.07;2.13;;;23.50;79.10;;;;;;5011783;28;20517;-53
2023/06/03 07:43:11;;;;;;;3.78;2.20;;;23.50;77.80;;;;;;5011821;28;20033;-57
2023/06/03 07:45:37;;;;;;;4.85;2.15;;;23.40;78.20;;;;;;5012140;28;20018;-55
2023/06/03 07:48:04;;;;;;;15.75;2.10;;;23.50;79.20;;;;;;5012173;28;20014;-51
2023/06/03 07:50:31;;;;;;;2.88;2.10;;;23.90;77.90;;;;;;5011766;28;20030;-54
2023/06/03 07:53:02;;;;;;;7.03;2.60;;;23.70;77.20;;;;;;5011280;28;20033;-53
2023/06/03 07:55:46;;;;;;;11.63;2.95;;;23.40;78.00;;;;;;5010453;28;20116;-52
2023/06/03 07:58:12;;;;;;;6.28;2.33;;;23.60;77.80;;;;;;5012167;28;20061;-56
2023/06/03 08:00:54;;;;;;;8.70;2.47;;;22.90;78.30;;;;;;5011637;28;20398;-56
2023/06/03 08:03:25;;;;;;;4.85;2.55;;;22.20;80.30;;;;;;5010738;28;20053;-55
2023/06/03 08:05:51;;;;;;;6.03;2.30;;;21.50;81.70;;;;;;5010922;28;20025;-50
2023/06/03 08:08:23;;;;;;;6.20;2.30;;;21.00;83.20;;;;;;5010707;28;20398;-53
2023/06/03 08:10:49;;;;;;;5.57;2.17;;;20.90;83.00;;;;;;5011614;28;20030;-54
2023/06/03 08:13:18;;;;;;;7.22;3.90;;;20.40;83.90;;;;;;5007268;28;20026;-53
2023/06/03 08:15:43;;;;;;;4.32;2.10;;;20.40;84.40;;;;;;5011293;28;20038;-48
2023/06/03 08:18:12;;;;;;;6.55;2.70;;;20.90;84.40;;;;;;5009947;28;20406;-57
2023/06/03 08:20:38;;;;;;;3.97;2.40;;;20.80;84.70;;;;;;5002950;28;20520;-51
2023/06/03 08:23:04;;;;;;;7.68;2.67;;;20.60;84.40;;;;;;5011422;28;20038;-55
2023/06/03 08:25:30;;;;;;;5.00;2.78;;;20.30;85.90;;;;;;5012035;28;20493;-57
2023/06/03 08:27:56;;;;;;;5.40;2.63;;;20.20;85.50;;;;;;5011942;28;20104;-56
2023/06/03 08:30:22;;;;;;;3.63;2.45;;;20.20;86.10;;;;;;5011330;28;20062;-53
2023/06/03 08:32:50;;;;;;;5.20;2.72;;;20.40;85.90;;;;;;5010101;28;20026;-55
2023/06/03 08:35:21;;;;;;;6.90;2.72;;;20.60;85.00;;;;;;5011699;28;20025;-55
2023/06/03 08:37:46;;;;;;;8.90;2.83;;;20.80;86.40;;;;;;5011538;28;20113;-61
2023/06/03 08:40:21;;;;;;;9.13;2.60;;;21.10;85.00;;;;;;5011276;28;20109;-51
2023/06/03 08:42:48;;;;;;;8.02;2.97;;;21.30;84.90;;;;;;5011365;28;20104;-56
2023/06/03 08:45:18;;;;;;;7.53;2.22;;;21.30;84.20;;;;;;5011546;28;20088;-55
2023/06/03 08:48:08;;;;;;;6.40;2.78;;;21.50;84.10;;;;;;5011452;28;20025;-55
2023/06/03 08:50:35;;;;;;;13.68;2.70;;;21.60;84.00;;;;;;5010976;28;20117;-55
2023/06/03 08:53:08;;;;;;;6.68;2.50;;;21.60;83.90;;;;;;5011330;28;20048;-52
2023/06/03 08:55:36;;;;;;;7.50;2.55;;;21.40;83.90;;;;;;5011549;28;20068;-55
2023/06/03 08:58:16;;;;;;;3.70;2.35;;;21.50;84.50;;;;;;5011684;28;20421;-57
2023/06/03 09:00:43;;;;;;;4.13;2.28;;;21.50;84.20;;;;;;5010661;28;20038;-48
2023/06/03 09:03:11;;;;;;;6.53;2.75;;;21.40;84.60;;;;;;5011038;28;20033;-51
2023/06/03 09:05:38;;;;;;;3.55;2.38;;;21.50;84.40;;;;;;5013619;28;20037;-54
2023/06/03 09:08:05;;;;;;;17.63;9.45;;;21.70;84.10;;;;;;5015490;28;20033;-52
2023/06/03 09:10:31;;;;;;;54.72;33.67;;;22.00;84.10;;;;;;5014793;28;20121;-52
2023/06/03 09:12:58;;;;;;;7.15;3.10;;;22.10;83.00;;;;;;5014735;28;20026;-54
2023/06/03 09:15:24;;;;;;;6.47;2.85;;;21.70;82.90;;;;;;5014999;28;20045;-51
2023/06/03 09:17:50;;;;;;;6.32;3.05;;;21.30;84.20;;;;;;5012952;28;20025;-52
2023/06/03 09:20:16;;;;;;;6.82;2.67;;;21.10;84.90;;;;;;5014569;28;20055;-48
2023/06/03 09:22:43;;;;;;;5.97;3.20;;;20.90;85.30;;;;;;5010545;28;20038;-56
2023/06/03 09:25:09;;;;;;;9.73;2.90;;;20.90;86.50;;;;;;5011021;28;20501;-54
2023/06/03 09:27:35;;;;;;;7.00;2.92;;;21.00;87.30;;;;;;5014452;28;20104;-51
2023/06/03 09:30:03;;;;;;;9.48;3.10;;;21.30;85.30;;;;;;5014314;28;20389;-50
2023/06/03 09:32:30;;;;;;;5.43;2.53;;;21.30;85.30;;;;;;5014407;28;20109;-52
2023/06/03 09:34:56;;;;;;;4.70;3.42;;;21.40;83.80;;;;;;5014245;28;20026;-52
2023/06/03 09:37:21;;;;;;;5.13;2.85;;;21.30;85.00;;;;;;5014459;28;20030;-54
2023/06/03 09:39:48;;;;;;;5.20;3.05;;;21.20;84.10;;;;;;5007332;28;20535;-56
2023/06/03 09:42:15;;;;;;;6.60;2.58;;;21.10;85.20;;;;;;5013928;28;20021;-54
2023/06/03 09:44:43;;;;;;;5.13;3.67;;;21.00;83.90;;;;;;5013772;28;20101;-54
2023/06/03 09:47:11;;;;;;;6.53;3.20;;;21.00;84.10;;;;;;5014665;28;20060;-55
2023/06/03 09:49:37;;;;;;;9.50;3.53;;;21.00;84.50;;;;;;5014441;28;20072;-57
2023/06/03 09:52:09;;;;;;;10.05;3.00;;;21.00;84.00;;;;;;5013308;28;20057;-56
2023/06/03 09:54:35;;;;;;;5.75;2.97;;;21.10;83.70;;;;;;5013528;28;20048;-51
2023/06/03 09:57:12;;;;;;;10.63;3.15;;;21.30;84.40;;;;;;5013746;28;20038;-56
2023/06/03 09:59:40;;;;;;;4.55;3.25;;;21.40;83.50;;;;;;5013689;28;20026;-51
2023/06/03 10:02:11;;;;;;;4.88;2.60;;;21.40;83.00;;;;;;5013493;28;20042;-53
2023/06/03 10:04:42;;;;;;;10.68;3.40;;;21.30;83.30;;;;;;5006536;28;20097;-53
2023/06/03 10:07:09;;;;;;;7.00;3.38;;;21.50;83.20;;;;;;5013915;28;20025;-52
2023/06/03 10:09:35;;;;;;;14.82;3.63;;;21.50;83.30;;;;;;5014115;28;20118;-53
2023/06/03 10:12:02;;;;;;;6.57;2.92;;;21.60;83.60;;;;;;5013185;28;20456;-61
2023/06/03 10:14:27;;;;;;;6.03;3.58;;;21.50;82.80;;;;;;5013340;28;20021;-55
2023/06/03 10:17:09;;;;;;;9.88;2.75;;;21.40;82.70;;;;;;5011941;28;20095;-54
2023/06/03 10:19:36;;;;;;;4.22;3.08;;;21.70;83.90;;;;;;5013274;28;20301;-54
2023/06/03 10:22:03;;;;;;;5.60;3.28;;;21.90;82.00;;;;;;5010177;28;20087;-53
2023/06/03 10:24:30;;;;;;;8.88;4.68;;;21.90;82.30;;;;;;5012403;28;20034;-57
2023/06/03 10:26:56;;;;;;;4.68;3.50;;;21.70;82.40;;;;;;5013678;28;20032;-56
2023/06/03 10:29:23;;;;;;;7.45;2.80;;;21.70;82.40;;;;;;5013491;28;20029;-59
2023/06/03 10:31:53;;;;;;;5.50;2.80;;;21.70;82.00;;;;;;5013313;28;20030;-55
2023/06/03 10:34:19;;;;;;;5.63;3.08;;;21.90;81.50;;;;;;5013384;28;20026;-57
2023/06/03 10:36:51;;;;;;;10.02;3.35;;;22.10;82.20;;;;;;5014045;28;20469;-57
2023/06/03 10:39:17;;;;;;;10.57;3.53;;;22.20;81.10;;;;;;5013761;28;20026;-55
2023/06/03 10:41:44;;;;;;;10.98;3.17;;;22.30;81.10;;;;;;5013143;28;20025;-57
2023/06/03 10:44:09;;;;;;;6.78;3.25;;;22.30;79.60;;;;;;5012870;28;20557;-55
2023/06/03 10:46:41;;;;;;;10.02;3.20;;;22.20;79.50;;;;;;5013126;28;20121;-50
2023/06/03 10:49:08;;;;;;;6.15;3.30;;;21.90;79.30;;;;;;5012203;28;20022;-54
2023/06/03 10:51:52;;;;;;;4.88;2.90;;;21.70;80.60;;;;;;5013336;28;20068;-53
2023/06/03 10:54:55;;;;;;;5.45;3.05;;;21.70;81.40;;;;;;5012977;28;20037;-55
2023/06/03 10:57:25;;;;;;;8.60;3.58;;;21.60;81.00;;;;;;5012954;28;20041;-56
2023/06/03 10:59:51;;;;;;;11.15;3.30;;;21.60;81.50;;;;;;5013268;28;20025;-56
2023/06/03 11:02:17;;;;;;;7.13;3.10;;;21.70;81.20;;;;;;5013053;28;20030;-56
2023/06/03 11:04:42;;;;;;;5.85;2.90;;;21.90;81.40;;;;;;5012933;28;20032;-56
2023/06/03 11:07:30;;;;;;;8.98;2.92;;;22.00;80.00;;;;;;5011406;28;20146;-55
2023/06/03 11:09:56;;;;;;;7.00;3.08;;;22.00;80.90;;;;;;5013153;28;20018;-56
2023/06/03 11:12:42;;;;;;;9.43;3.30;;;21.90;80.50;;;;;;5013058;28;20422;-54
2023/06/03 11:15:07;;;;;;;9.50;3.22;;;21.90;80.80;;;;;;5012728;28;20037;-58
2023/06/03 11:17:33;;;;;;;6.35;4.03;;;21.90;80.90;;;;;;5012731;28;20033;-56
2023/06/03 11:19:59;;;;;;;7.13;3.30;;;21.90;80.50;;;;;;5012642;28;20505;-54
2023/06/03 11:22:27;;;;;;;6.15;3.05;;;21.80;79.90;;;;;;5004931;28;20022;-54
2023/06/03 11:24:54;;;;;;;10.95;4.05;;;21.90;82.00;;;;;;5005136;28;20049;-54
2023/06/03 11:27:21;;;;;;;7.25;3.40;;;21.90;80.00;;;;;;5012584;28;20466;-57
2023/06/03 11:29:47;;;;;;;7.18;3.50;;;21.90;81.10;;;;;;4990829;28;20026;-57
2023/06/03 11:32:13;;;;;;;3.72;2.92;;;22.00;81.10;;;;;;4992400;28;20098;-56
2023/06/03 11:34:39;;;;;;;8.63;3.00;;;21.90;79.80;;;;;;5008507;28;20023;-56
2023/06/03 11:37:04;;;;;;;5.47;3.03;;;21.90;80.60;;;;;;4991389;28;20137;-57
2023/06/03 11:40:06;;;;;;;8.35;3.30;;;21.80;79.60;;;;;;5007859;28;20070;-56
2023/06/03 11:42:51;;;;;;;6.75;3.05;;;21.80;80.10;;;;;;4991391;28;20034;-55
2023/06/03 11:45:28;;;;;;;4.85;3.17;;;21.70;82.30;;;;;;4978672;28;20042;-57
2023/06/03 11:47:55;;;;;;;5.07;3.30;;;21.90;81.10;;;;;;4992548;28;20399;-56
2023/06/03 11:50:25;;;;;;;6.82;3.35;;;22.00;80.10;;;;;;4992049;28;20022;-56
2023/06/03 11:52:51;;;;;;;5.68;3.28;;;22.00;80.50;;;;;;4992332;28;20022;-56
2023/06/03 11:55:25;;;;;;;13.85;3.55;;;22.00;80.50;;;;;;4992348;28;20027;-57
2023/06/03 11:57:51;;;;;;;4.65;3.25;;;22.10;80.30;;;;;;4992296;28;20032;-54
2023/06/03 12:00:18;;;;;;;39.65;25.88;;;22.10;80.40;;;;;;4991916;28;20034;-51
2023/06/03 12:02:48;;;;;;;6.97;4.78;;;22.10;81.00;;;;;;4992094;28;20026;-55
2023/06/03 12:05:20;;;;;;;6.45;3.20;;;22.20;80.30;;;;;;4992260;28;20454;-57
2023/06/03 12:07:54;;;;;;;7.88;3.58;;;22.20;80.00;;;;;;4992396;28;20393;-56
2023/06/03 12:10:19;;;;;;;12.05;3.63;;;22.20;80.80;;;;;;4991824;28;20026;-58
2023/06/03 12:12:56;;;;;;;11.55;3.53;;;22.30;80.60;;;;;;4991657;28;20298;-57
2023/06/03 12:15:22;;;;;;;9.63;3.97;;;22.40;80.10;;;;;;4992398;28;20035;-59
2023/06/03 12:17:48;;;;;;;10.02;3.00;;;22.50;80.00;;;;;;4992394;28;20092;-57
2023/06/03 12:20:24;;;;;;;5.55;3.28;;;22.50;80.50;;;;;;4990464;28;20022;-57
2023/06/03 12:23:01;;;;;;;11.60;3.65;;;22.60;78.90;;;;;;4991654;28;20027;-57
2023/06/03 12:25:27;;;;;;;7.50;3.60;;;22.60;80.50;;;;;;4991897;28;20073;-56
2023/06/03 12:27:54;;;;;;;12.05;4.13;;;22.70;80.20;;;;;;4992472;28;20046;-59
2023/06/03 12:30:30;;;;;;;7.65;2.97;;;22.60;79.80;;;;;;4991855;28;20019;-53
2023/06/03 12:32:59;;;;;;;5.95;3.25;;;22.60;80.00;;;;;;4991519;28;20038;-54
2023/06/03 12:35:25;;;;;;;8.00;3.58;;;22.60;79.60;;;;;;4991752;28;20018;-58
2023/06/03 12:38:07;;;;;;;7.60;4.13;;;22.70;79.10;;;;;;5005283;28;20028;-54
2023/06/03 12:40:35;;;;;;;4.05;3.17;;;22.70;78.60;;;;;;5013336;28;20018;-57
2023/06/03 12:43:02;;;;;;;5.13;2.95;;;22.60;79.30;;;;;;5015250;28;20444;-59
2023/06/03 12:45:27;;;;;;;8.85;3.30;;;22.70;78.80;;;;;;5015117;28;20026;-54
2023/06/03 12:47:54;;;;;;;4.47;3.70;;;22.70;79.80;;;;;;5014574;28;20014;-57
2023/06/03 12:50:23;;;;;;;7.50;3.72;;;22.60;78.90;;;;;;5008818;28;20049;-56